Merced, CA (95341)

4:50 AM PDT on September 19, 2014 (GMT -0700)
North Merced | Change Station
CLOSE
Current Station
Personal Weather Station
Location: Merced, CA
Elevation: 184 ft
Nearby Weather Stations

Elev 184 ft 37.34 °N, 120.46 °W | Updated 12 seconds ago

Clear
Clear
67.1 °F
Feels Like 67.1 °F
N
9.0
Wind Variable Wind from NNW
Gusts 14.0 mph

Today
High -- | Low -- °F
--% Chance of Precip.
Yesterday
High -- | Low -- °F
Precip. -- in
6:47 AM 7:03 PM
Waning Crescent, 19% visible
Pressure 29.85 in
Visibility 10.0 miles
Clouds Clear
Dew Point 59 °F
Humidity 75%
Rainfall 0.00 in
Snow Depth 2 in , 0 in , 0 in
UV 0 out of 12
Pollen 5.90 out of 12
Air Quality Not available.
Flu Activity Not available.
METAR KMCE 191053Z AUTO 32007KT 10SM CLR 19/15 A2985 RMK AO2 SLP106 T01940150

More Conditions Fewer Conditions

Pressure 29.85 in
Visibility 10.0 miles
Clouds Clear
Dew Point 59 °F
Humidity 75%
Rainfall 0.00 in
Snow Depth 2 in , 0 in , 0 in
UV 0 out of 12
Pollen 5.90 out of 12
Air Quality Not available.
Flu Activity Not available.
METAR KMCE 191053Z AUTO 32007KT 10SM CLR 19/15 A2985 RMK AO2 SLP106 T01940150

More Conditions Fewer Conditions

10-Day Weather Forecast

Almanac

Astronomy

Sep. 19, 2014 Rise Set
Actual Time 6:47 AM PDT 7:03 PM PDT
Civil Twilight 6:21 AM PDT 7:29 PM PDT
Nautical Twilight 5:50 AM PDT 7:59 PM PDT
Astronomical Twilight 5:19 AM PDT 8:30 PM PDT
Moon 2:41 AM PDT 4:31 PM PDT
Length of Visible Light 13h 08m
Length of Day
12h 15m
Tomorrow will be 2m 22s shorter.
Waning Crescent, 19% of the Moon is Illuminated
Today
Waning Crescent
Sep 24
New
Oct 1
First Quarter
Oct 8
Full
Oct 15
Last Quarter

Today's Extremes

State Highs State Lows

Community

WunderPhotos

Upload Photos

1,754,597 photos uploaded!

Nearby

Air Quality

  Air Quality AQ Index Pollutant
Yesterday Good
OZONE
Friday Moderate
PM2.5
Saturday Moderate
PM2.5
Sunday Moderate
PM2.5
Monday Moderate
PM2.5
Tuesday Moderate
PM2.5

Snow Depth

Station Depth Elevation
Adin Mountain 2 in 6200 ft
Independence Camp 0 in 7000 ft
Leavitt Meadows 0 in 7200 ft
Spratt Creek 1 in 6200 ft
Tahoe City Cross 0 in 6750 ft

Earthquake Activity

City Distance Mag. Time & Date
Livermore, California 72 miles 2.6 3:37 AM PDT
2014-09-19
Corcoran, California 98 miles 3.0 3:59 PM PDT
2014-09-18
Minimum magnitude displayed is 2.5.

Coastal Water Temperatures

Place Temperature
No Stations Reporting

Nearby Weather Stations